Time;durP1;ratioP1;P1;durP2;ratioP2;P2;SDS_P1;SDS_P2;PMS_P1;PMS_P2;Temp;Humidity;BMP_temperature;BMP_pressure;BME280_temperature;BME280_humidity;BME280_pressure;Samples;Min_cycle;Max_cycle;Signal;HPM_P1;HPM_P2
2022/08/05 00:01:25;;;;;;;3.65;2.65;;;24.90;51.70;;;;;;5113064;28;20038;-69
2022/08/05 00:03:51;;;;;;;3.97;2.88;;;24.90;51.60;;;;;;5114194;27;20020;-69
2022/08/05 00:06:17;;;;;;;2.58;2.17;;;24.90;51.40;;;;;;5114265;28;20108;-69
2022/08/05 00:08:43;;;;;;;6.45;2.45;;;24.90;51.40;;;;;;5114142;28;20030;-69
2022/08/05 00:11:13;;;;;;;2.65;2.30;;;24.80;51.20;;;;;;5114154;28;20028;-69
2022/08/05 00:13:40;;;;;;;3.55;2.53;;;24.80;51.70;;;;;;5114057;28;20023;-69
2022/08/05 00:16:12;;;;;;;3.33;2.60;;;24.80;51.80;;;;;;5113985;28;20020;-68
2022/08/05 00:18:40;;;;;;;2.67;2.47;;;24.70;52.40;;;;;;5113894;28;20495;-69
2022/08/05 00:21:06;;;;;;;4.03;2.58;;;24.70;52.20;;;;;;5105991;28;20044;-69
2022/08/05 00:23:32;;;;;;;2.95;2.35;;;24.70;52.10;;;;;;5093326;28;20039;-70
2022/08/05 00:25:58;;;;;;;5.47;2.47;;;24.70;52.30;;;;;;5093508;28;20024;-69
2022/08/05 00:28:23;;;;;;;3.85;2.20;;;24.70;52.20;;;;;;5104146;28;20059;-70
2022/08/05 00:30:49;;;;;;;5.47;2.67;;;24.60;52.30;;;;;;5113853;28;20024;-69
2022/08/05 00:33:16;;;;;;;3.25;2.15;;;24.60;52.50;;;;;;5112075;28;20101;-69
2022/08/05 00:35:42;;;;;;;4.25;2.55;;;24.60;52.60;;;;;;5113726;28;20051;-69
2022/08/05 00:38:07;;;;;;;4.80;2.92;;;24.60;52.70;;;;;;5112423;28;20427;-69
2022/08/05 00:40:33;;;;;;;8.38;2.72;;;24.60;52.90;;;;;;5113602;28;20112;-69
2022/08/05 00:43:01;;;;;;;3.72;2.90;;;24.60;53.20;;;;;;5113588;28;20024;-69
2022/08/05 00:45:28;;;;;;;4.43;3.30;;;24.50;52.90;;;;;;5113461;27;20047;-69
2022/08/05 00:47:54;;;;;;;3.05;2.50;;;24.50;53.00;;;;;;5113605;28;20031;-69
2022/08/05 00:50:20;;;;;;;3.95;2.58;;;24.50;53.00;;;;;;5113484;28;20015;-69
2022/08/05 00:52:46;;;;;;;2.90;2.58;;;24.50;53.00;;;;;;5113321;28;20038;-69
2022/08/05 00:55:11;;;;;;;2.78;2.50;;;24.50;52.80;;;;;;5113291;28;20019;-69
2022/08/05 00:57:37;;;;;;;3.28;2.70;;;24.50;52.60;;;;;;5111543;28;20100;-69
2022/08/05 01:00:05;;;;;;;6.07;2.33;;;24.40;52.60;;;;;;5111643;28;20091;-69
2022/08/05 01:02:31;;;;;;;2.78;2.20;;;24.40;52.50;;;;;;5111524;28;20024;-69
2022/08/05 01:04:57;;;;;;;3.28;2.45;;;24.40;52.50;;;;;;5112891;28;20031;-69
2022/08/05 01:07:22;;;;;;;3.20;2.28;;;24.40;52.50;;;;;;5112868;27;20020;-69
2022/08/05 01:09:49;;;;;;;2.60;2.22;;;24.30;52.60;;;;;;5112742;28;20027;-70
2022/08/05 01:12:19;;;;;;;4.25;3.00;;;24.30;52.70;;;;;;5113086;28;20342;-68
2022/08/05 01:14:49;;;;;;;4.43;2.70;;;24.30;53.20;;;;;;5113104;28;20011;-69
2022/08/05 01:17:21;;;;;;;4.65;2.88;;;24.20;53.00;;;;;;5112688;28;20055;-69
2022/08/05 01:20:15;;;;;;;2.55;2.35;;;24.20;53.10;;;;;;5102342;28;20081;-69
2022/08/05 01:23:06;;;;;;;3.25;2.58;;;24.20;53.00;;;;;;5109952;28;20130;-69
2022/08/05 01:26:06;;;;;;;4.72;2.63;;;24.10;53.00;;;;;;5112537;28;20016;-69
2022/08/05 01:28:46;;;;;;;5.90;2.38;;;24.10;53.00;;;;;;5110763;28;20035;-69
2022/08/05 01:31:22;;;;;;;5.05;2.45;;;24.10;53.10;;;;;;5112269;28;20116;-69
2022/08/05 01:34:00;;;;;;;3.67;3.00;;;24.10;53.40;;;;;;5112497;28;20072;-69
2022/08/05 01:36:31;;;;;;;15.43;2.80;;;24.00;53.30;;;;;;5112377;28;20103;-69
2022/08/05 01:38:58;;;;;;;3.88;2.78;;;24.00;53.20;;;;;;5112441;28;20047;-69
2022/08/05 01:41:26;;;;;;;3.22;2.90;;;24.00;53.40;;;;;;5112361;28;20027;-69
2022/08/05 01:43:53;;;;;;;5.82;3.30;;;23.90;53.60;;;;;;5112278;28;20034;-69
2022/08/05 01:46:20;;;;;;;3.90;2.97;;;23.90;53.60;;;;;;5112341;28;20161;-69
2022/08/05 01:48:47;;;;;;;3.97;2.40;;;24.00;54.00;;;;;;5112225;28;20092;-68
2022/08/05 01:51:14;;;;;;;4.68;2.95;;;23.90;53.60;;;;;;5112267;28;20529;-69
2022/08/05 01:53:41;;;;;;;3.28;2.63;;;23.90;53.90;;;;;;5112254;28;20019;-69
2022/08/05 01:56:10;;;;;;;5.35;2.83;;;23.90;53.70;;;;;;5110756;28;20032;-69
2022/08/05 01:58:37;;;;;;;3.55;2.88;;;23.90;53.70;;;;;;5109125;28;20039;-68
2022/08/05 02:01:04;;;;;;;3.45;3.05;;;23.90;53.80;;;;;;5112130;28;20047;-69
2022/08/05 02:03:39;;;;;;;3.60;2.80;;;23.90;54.00;;;;;;5112061;28;20020;-69
2022/08/05 02:06:07;;;;;;;5.22;3.28;;;23.80;54.10;;;;;;5112057;28;20051;-69
2022/08/05 02:08:33;;;;;;;6.80;3.58;;;23.80;54.00;;;;;;5112131;28;20125;-69
2022/08/05 02:11:12;;;;;;;4.35;3.13;;;23.80;54.00;;;;;;5112053;28;20099;-69
2022/08/05 02:13:52;;;;;;;8.00;2.80;;;23.80;54.20;;;;;;5115775;28;20026;-69
2022/08/05 02:16:29;;;;;;;9.73;3.20;;;23.70;54.40;;;;;;5116132;28;20034;-69
2022/08/05 02:19:29;;;;;;;3.33;2.80;;;23.70;54.40;;;;;;5102759;28;20024;-69
2022/08/05 02:22:13;;;;;;;3.97;3.03;;;23.60;54.40;;;;;;5095550;28;20072;-68
2022/08/05 02:24:40;;;;;;;;;;;23.60;54.50;;;;;;5094632;28;20373;-69
2022/08/05 02:27:09;;;;;;;5.85;2.97;;;23.60;53.80;;;;;;5113434;28;19953;-69
2022/08/05 02:29:36;;;;;;;3.28;2.97;;;23.60;54.30;;;;;;5116106;28;20478;-69
2022/08/05 02:32:06;;;;;;;4.43;3.20;;;23.50;54.30;;;;;;5116011;28;20358;-69
2022/08/05 02:34:34;;;;;;;5.60;2.80;;;23.50;54.70;;;;;;5115928;28;20034;-69
2022/08/05 02:37:03;;;;;;;3.35;2.95;;;23.50;54.80;;;;;;5115885;28;20015;-69
2022/08/05 02:39:35;;;;;;;9.60;3.35;;;23.40;54.60;;;;;;5114544;28;20074;-69
2022/08/05 02:42:02;;;;;;;4.25;3.00;;;23.40;54.70;;;;;;5115830;28;20024;-69
2022/08/05 02:44:31;;;;;;;5.70;2.67;;;23.40;54.80;;;;;;5115772;28;20032;-69
2022/08/05 02:46:58;;;;;;;3.25;2.95;;;23.30;54.90;;;;;;5116383;28;20106;-69
2022/08/05 02:49:26;;;;;;;6.32;2.63;;;23.30;54.90;;;;;;5115647;27;20103;-69
2022/08/05 02:51:52;;;;;;;3.67;3.22;;;23.30;55.00;;;;;;5115649;28;20083;-70
2022/08/05 02:54:20;;;;;;;4.20;3.15;;;23.30;55.10;;;;;;5114596;28;20494;-69
2022/08/05 02:56:47;;;;;;;2.95;2.65;;;23.30;55.20;;;;;;5113743;28;20110;-69
2022/08/05 02:59:16;;;;;;;3.42;3.13;;;23.30;55.10;;;;;;5115517;28;20020;-69
2022/08/05 03:01:42;;;;;;;3.45;3.08;;;23.30;55.30;;;;;;5114202;28;20031;-70
2022/08/05 03:04:13;;;;;;;4.00;2.97;;;23.20;55.20;;;;;;5115181;28;20031;-69
2022/08/05 03:06:41;;;;;;;3.47;3.13;;;23.20;55.70;;;;;;5115419;28;20027;-70
2022/08/05 03:09:10;;;;;;;2.72;2.53;;;23.20;55.70;;;;;;5115290;28;20051;-68
2022/08/05 03:11:36;;;;;;;5.07;3.80;;;23.20;55.80;;;;;;5115248;28;20120;-69
2022/08/05 03:14:01;;;;;;;8.43;3.10;;;23.20;55.80;;;;;;5115344;28;20051;-69
2022/08/05 03:16:27;;;;;;;4.07;2.85;;;23.20;55.80;;;;;;5110636;28;20434;-69
2022/08/05 03:18:53;;;;;;;3.85;3.25;;;23.20;55.70;;;;;;5094771;28;20028;-69
2022/08/05 03:21:19;;;;;;;4.22;3.30;;;23.10;55.70;;;;;;5094980;28;20094;-69
2022/08/05 03:23:45;;;;;;;5.45;3.60;;;23.10;56.00;;;;;;5093224;28;20031;-69
2022/08/05 03:26:11;;;;;;;4.25;3.30;;;23.10;56.00;;;;;;5104272;28;20072;-69
2022/08/05 03:28:37;;;;;;;4.70;3.28;;;23.10;56.00;;;;;;5114891;27;20019;-69
2022/08/05 03:31:03;;;;;;;3.67;3.20;;;23.10;55.90;;;;;;5114999;28;20072;-69
2022/08/05 03:33:30;;;;;;;5.95;3.15;;;23.00;56.00;;;;;;5113494;28;20024;-68
2022/08/05 03:35:58;;;;;;;5.55;3.20;;;23.00;56.10;;;;;;5115080;27;20032;-69
2022/08/05 03:38:25;;;;;;;4.18;3.33;;;23.00;56.30;;;;;;5114790;28;20026;-69
2022/08/05 03:40:52;;;;;;;7.00;3.90;;;23.00;56.30;;;;;;5114636;28;20027;-69
2022/08/05 03:43:19;;;;;;;3.80;3.40;;;23.00;56.30;;;;;;5114598;28;20085;-69
2022/08/05 03:45:45;;;;;;;7.50;3.50;;;23.00;56.10;;;;;;5114613;28;20411;-69
2022/08/05 03:48:11;;;;;;;3.85;3.55;;;23.00;56.10;;;;;;5114445;28;20413;-69
2022/08/05 03:51:15;;;;;;;4.78;3.30;;;23.00;56.30;;;;;;5114379;28;20099;-69
2022/08/05 03:54:04;;;;;;;6.78;4.03;;;23.00;56.70;;;;;;5111956;28;20115;-69
2022/08/05 03:56:42;;;;;;;4.78;3.83;;;23.00;56.70;;;;;;5112435;28;20038;-69
2022/08/05 03:59:13;;;;;;;10.38;3.80;;;23.00;56.60;;;;;;5095759;28;20437;-68
2022/08/05 04:01:46;;;;;;;7.70;3.85;;;23.00;56.70;;;;;;5093790;28;20024;-69
2022/08/05 04:04:14;;;;;;;5.55;3.78;;;23.00;56.70;;;;;;5092319;28;20027;-69
2022/08/05 04:06:41;;;;;;;5.57;3.60;;;23.00;56.70;;;;;;5093540;28;20024;-69
2022/08/05 04:09:07;;;;;;;15.10;3.58;;;23.00;56.90;;;;;;5093529;28;20419;-68
2022/08/05 04:11:35;;;;;;;4.80;3.70;;;23.00;56.60;;;;;;5093529;28;20024;-69
2022/08/05 04:14:01;;;;;;;5.60;3.58;;;23.00;56.70;;;;;;5093462;28;20028;-69
2022/08/05 04:16:27;;;;;;;4.70;3.47;;;23.00;56.70;;;;;;5093359;28;20478;-69
2022/08/05 04:18:53;;;;;;;6.28;3.65;;;23.00;56.60;;;;;;5093296;28;20031;-69
2022/08/05 04:21:19;;;;;;;5.05;3.55;;;23.00;56.60;;;;;;5093289;28;20121;-69
2022/08/05 04:23:45;;;;;;;5.10;3.80;;;23.10;56.70;;;;;;5093066;28;20494;-69
2022/08/05 04:26:13;;;;;;;4.65;3.95;;;23.10;56.90;;;;;;5101650;28;20095;-69
2022/08/05 04:28:39;;;;;;;5.40;4.25;;;23.10;56.90;;;;;;5113558;28;20016;-69
2022/08/05 04:31:05;;;;;;;6.80;4.00;;;23.10;56.80;;;;;;5113397;28;20030;-69
2022/08/05 04:33:30;;;;;;;6.60;4.15;;;23.20;56.90;;;;;;5113436;28;20020;-69
2022/08/05 04:35:56;;;;;;;5.35;3.78;;;23.20;56.90;;;;;;5112865;28;20041;-69
2022/08/05 04:38:22;;;;;;;7.40;3.50;;;23.20;56.90;;;;;;5113389;28;20028;-69
2022/08/05 04:40:48;;;;;;;7.30;3.50;;;23.20;56.80;;;;;;5113289;28;20473;-69
2022/08/05 04:43:13;;;;;;;7.53;3.90;;;23.30;56.90;;;;;;5113126;28;20449;-69
2022/08/05 04:45:39;;;;;;;5.65;4.35;;;23.30;56.90;;;;;;5113074;28;20095;-69
2022/08/05 04:48:06;;;;;;;5.72;3.85;;;23.40;57.00;;;;;;5113198;28;20538;-70
2022/08/05 04:50:41;;;;;;;5.18;3.65;;;23.40;56.90;;;;;;5113154;28;20418;-69
2022/08/05 04:53:08;;;;;;;4.82;3.78;;;23.50;57.00;;;;;;5113146;28;20036;-69
2022/08/05 04:55:35;;;;;;;6.72;3.67;;;23.50;56.80;;;;;;5111425;28;20115;-70
2022/08/05 04:58:02;;;;;;;6.53;3.85;;;23.60;56.80;;;;;;5113053;28;20510;-69
2022/08/05 05:00:28;;;;;;;7.03;3.70;;;23.60;56.70;;;;;;5112199;28;20388;-69
2022/08/05 05:02:53;;;;;;;5.68;3.80;;;23.70;56.60;;;;;;5113190;28;20027;-69
2022/08/05 05:05:19;;;;;;;6.70;3.85;;;23.80;56.50;;;;;;5112676;28;20027;-69
2022/08/05 05:07:45;;;;;;;8.02;3.95;;;23.80;56.40;;;;;;5111518;28;20056;-69
2022/08/05 05:10:11;;;;;;;6.90;3.63;;;23.80;56.20;;;;;;5112752;28;20465;-68
2022/08/05 05:12:37;;;;;;;7.68;3.47;;;23.90;56.00;;;;;;5112617;28;20034;-69
2022/08/05 05:15:04;;;;;;;4.80;3.60;;;23.90;55.70;;;;;;5096282;28;20027;-68
2022/08/05 05:17:39;;;;;;;6.70;4.00;;;24.00;55.60;;;;;;5090897;28;20484;-68
2022/08/05 05:20:06;;;;;;;6.05;3.80;;;24.00;55.50;;;;;;5090671;28;20448;-69
2022/08/05 05:22:32;;;;;;;10.85;4.55;;;24.10;55.40;;;;;;5092110;28;20082;-69
2022/08/05 05:24:58;;;;;;;4.07;3.63;;;24.20;55.40;;;;;;5092140;28;20056;-69
2022/08/05 05:27:30;;;;;;;5.82;4.05;;;24.20;55.20;;;;;;5110764;28;20431;-69
2022/08/05 05:29:56;;;;;;;9.77;4.22;;;24.20;55.10;;;;;;5112441;28;20015;-69
2022/08/05 05:32:22;;;;;;;5.53;3.60;;;24.30;54.90;;;;;;5112207;28;20170;-69
2022/08/05 05:34:48;;;;;;;5.45;3.95;;;24.40;55.30;;;;;;5109859;28;20077;-70
2022/08/05 05:37:14;;;;;;;6.72;4.32;;;24.40;54.60;;;;;;5112242;28;20070;-69
2022/08/05 05:39:40;;;;;;;5.32;3.63;;;24.50;54.40;;;;;;5112477;28;20540;-69
2022/08/05 05:42:06;;;;;;;5.05;3.88;;;24.50;54.10;;;;;;5111081;28;20114;-69
2022/08/05 05:44:35;;;;;;;10.70;4.35;;;24.60;54.10;;;;;;5112376;28;20107;-69
2022/08/05 05:47:00;;;;;;;8.15;4.28;;;24.70;53.90;;;;;;5096833;28;20111;-69
2022/08/05 05:49:26;;;;;;;10.13;4.47;;;24.70;53.80;;;;;;5111021;28;20110;-69
2022/08/05 05:51:53;;;;;;;6.40;3.75;;;24.70;53.70;;;;;;5112017;28;20031;-69
2022/08/05 05:54:19;;;;;;;7.95;4.03;;;24.80;53.60;;;;;;5113002;28;20039;-69
2022/08/05 05:56:45;;;;;;;8.23;4.10;;;24.80;53.60;;;;;;5104036;28;20046;-70
2022/08/05 05:59:10;;;;;;;5.07;3.50;;;24.90;53.60;;;;;;5108511;28;20031;-69
2022/08/05 06:01:40;;;;;;;7.45;3.45;;;24.90;53.40;;;;;;5111824;28;20488;-70
2022/08/05 06:04:11;;;;;;;8.52;3.70;;;25.00;53.30;;;;;;5109501;28;20031;-69
2022/08/05 06:06:37;;;;;;;5.85;4.05;;;25.00;53.20;;;;;;5111832;28;20375;-69
2022/08/05 06:09:04;;;;;;;5.95;3.38;;;25.10;53.10;;;;;;5112703;28;20020;-69
2022/08/05 06:11:31;;;;;;;5.43;3.13;;;25.10;53.10;;;;;;5110086;28;20016;-74
2022/08/05 06:13:57;;;;;;;5.60;3.60;;;25.20;53.10;;;;;;5092784;28;20053;-74
2022/08/05 06:16:24;;;;;;;14.05;4.88;;;25.20;53.00;;;;;;5092777;28;20024;-75
2022/08/05 06:18:50;;;;;;;6.10;3.90;;;25.30;52.90;;;;;;5092716;28;20028;-75
2022/08/05 06:21:16;;;;;;;8.30;4.18;;;25.30;52.80;;;;;;5092584;28;20055;-74
2022/08/05 06:23:42;;;;;;;5.38;4.28;;;25.40;52.70;;;;;;5091283;28;20086;-74
2022/08/05 06:26:08;;;;;;;7.90;4.57;;;25.40;52.50;;;;;;5099474;28;20108;-75
2022/08/05 06:28:33;;;;;;;5.55;4.43;;;25.50;52.40;;;;;;5108218;28;20009;-74
2022/08/05 06:30:59;;;;;;;11.13;4.88;;;25.50;52.40;;;;;;5104267;28;20038;-75
2022/08/05 06:33:25;;;;;;;6.47;5.05;;;25.60;52.50;;;;;;5092699;28;20054;-76
2022/08/05 06:35:51;;;;;;;7.97;4.95;;;25.60;52.40;;;;;;5092832;28;20104;-75
2022/08/05 06:38:17;;;;;;;10.07;5.15;;;25.70;52.40;;;;;;5091018;28;20028;-75
2022/08/05 06:40:43;;;;;;;8.43;4.88;;;25.70;52.50;;;;;;5098799;28;20516;-75
2022/08/05 06:43:09;;;;;;;10.98;4.85;;;25.80;52.60;;;;;;5097838;28;20044;-73
2022/08/05 06:45:35;;;;;;;10.13;4.78;;;25.80;52.60;;;;;;5091220;28;20082;-76
2022/08/05 06:48:01;;;;;;;6.05;4.25;;;25.90;52.70;;;;;;5091301;28;20023;-73
2022/08/05 06:50:26;;;;;;;7.38;3.92;;;26.00;52.70;;;;;;5092488;28;20035;-74
2022/08/05 06:52:52;;;;;;;6.18;4.25;;;26.00;52.70;;;;;;5092633;28;20035;-75
2022/08/05 06:55:18;;;;;;;6.55;3.95;;;26.10;52.70;;;;;;5094782;28;20013;-74
2022/08/05 06:57:44;;;;;;;6.43;4.40;;;26.10;52.60;;;;;;5113231;28;20034;-75
2022/08/05 07:00:10;;;;;;;11.25;6.60;;;26.20;52.40;;;;;;5116409;28;20019;-74
2022/08/05 07:02:43;;;;;;;9.15;5.60;;;26.20;52.00;;;;;;5116544;28;20075;-75
2022/08/05 07:05:10;;;;;;;10.68;4.80;;;26.30;52.00;;;;;;5116407;28;20031;-76
2022/08/05 07:07:36;;;;;;;8.90;5.78;;;26.40;52.10;;;;;;5116479;28;20073;-73
2022/08/05 07:10:02;;;;;;;10.57;5.55;;;26.40;51.90;;;;;;5116390;28;20026;-73
2022/08/05 07:17:57;;;;;;;10.77;6.10;;;26.70;51.50;;;;;;5095857;28;20031;-76
2022/08/05 07:20:23;;;;;;;11.48;5.78;;;26.70;51.00;;;;;;5095725;28;20024;-73
2022/08/05 07:22:49;;;;;;;12.10;6.05;;;26.80;51.70;;;;;;5093607;28;20052;-74
2022/08/05 07:25:14;;;;;;;26.75;6.50;;;26.80;50.90;;;;;;5095742;28;20122;-75
2022/08/05 07:27:40;;;;;;;30.35;7.32;;;26.90;50.90;;;;;;5114782;28;20051;-75
2022/08/05 07:30:07;;;;;;;10.52;6.18;;;27.00;50.80;;;;;;5115999;28;20095;-74
2022/08/05 07:32:36;;;;;;;12.07;6.45;;;27.10;50.70;;;;;;5115844;28;20102;-75
2022/08/05 07:35:10;;;;;;;11.38;6.47;;;27.20;50.70;;;;;;5115827;28;20050;-75
2022/08/05 07:37:36;;;;;;;15.88;5.65;;;27.20;50.40;;;;;;5115831;28;20098;-75
2022/08/05 07:40:03;;;;;;;8.70;5.57;;;27.30;50.50;;;;;;5113233;28;20441;-75
2022/08/05 07:42:29;;;;;;;11.35;6.18;;;27.40;50.30;;;;;;5115443;28;20030;-74
2022/08/05 07:44:55;;;;;;;17.60;7.18;;;27.50;50.30;;;;;;5115643;28;20493;-75
2022/08/05 07:47:21;;;;;;;14.52;6.65;;;27.50;50.10;;;;;;5115666;28;20024;-75
2022/08/05 07:49:50;;;;;;;10.80;5.97;;;27.60;49.70;;;;;;5115547;28;20019;-73
2022/08/05 07:52:20;;;;;;;14.35;6.05;;;27.70;49.80;;;;;;5115480;28;20020;-74
2022/08/05 07:54:46;;;;;;;14.70;6.43;;;27.70;49.70;;;;;;5115438;28;20496;-75
2022/08/05 07:57:12;;;;;;;12.85;5.88;;;27.80;49.90;;;;;;5113864;28;20036;-74
2022/08/05 07:59:38;;;;;;;12.93;6.82;;;27.90;49.80;;;;;;5115456;28;20024;-75
2022/08/05 08:02:06;;;;;;;10.80;6.15;;;27.90;49.40;;;;;;5115545;28;20550;-73
2022/08/05 08:04:32;;;;;;;15.68;6.72;;;28.00;49.50;;;;;;5115311;28;20055;-73
2022/08/05 08:06:59;;;;;;;19.92;7.85;;;28.10;49.20;;;;;;5115313;28;20030;-74
2022/08/05 08:09:26;;;;;;;11.10;6.75;;;28.20;49.20;;;;;;5110037;28;20085;-75
2022/08/05 08:11:52;;;;;;;20.98;6.88;;;28.30;49.10;;;;;;5094732;28;20023;-73
2022/08/05 08:14:18;;;;;;;14.70;7.05;;;28.40;49.00;;;;;;5094748;28;20027;-73
2022/08/05 08:16:44;;;;;;;14.75;7.65;;;28.50;49.00;;;;;;5094722;28;20073;-74
2022/08/05 08:19:09;;;;;;;17.23;7.55;;;28.50;48.70;;;;;;5094487;28;20028;-74
2022/08/05 08:21:35;;;;;;;13.02;7.32;;;28.60;48.30;;;;;;5094429;28;20122;-73
2022/08/05 08:24:01;;;;;;;16.83;8.00;;;28.70;48.50;;;;;;5094412;28;20040;-75
2022/08/05 08:26:27;;;;;;;13.00;7.70;;;28.80;48.30;;;;;;5105118;28;20049;-75
2022/08/05 08:28:53;;;;;;;15.45;7.65;;;28.80;47.80;;;;;;5114626;28;20445;-74
2022/08/05 08:31:18;;;;;;;12.75;7.13;;;28.90;47.70;;;;;;5113506;28;20023;-75
2022/08/05 08:33:45;;;;;;;14.38;7.55;;;29.00;47.80;;;;;;5114778;27;20430;-75
2022/08/05 08:36:11;;;;;;;16.27;6.32;;;29.00;47.50;;;;;;5113432;28;20032;-74
2022/08/05 08:38:37;;;;;;;13.27;6.13;;;29.10;47.90;;;;;;5113410;28;20032;-75
2022/08/05 08:41:07;;;;;;;16.50;7.72;;;29.20;47.50;;;;;;5114650;28;20076;-73
2022/08/05 08:43:35;;;;;;;15.52;7.72;;;29.30;47.20;;;;;;5114490;28;20023;-75
2022/08/05 08:46:03;;;;;;;12.73;6.85;;;29.30;47.00;;;;;;5113227;28;20133;-74
2022/08/05 08:48:30;;;;;;;10.70;6.35;;;29.40;47.00;;;;;;5114416;28;20020;-74
2022/08/05 08:50:57;;;;;;;8.60;5.40;;;29.50;46.80;;;;;;5114429;28;20484;-75
2022/08/05 08:53:26;;;;;;;11.93;6.03;;;29.60;46.00;;;;;;5114354;28;20028;-74
2022/08/05 08:55:51;;;;;;;11.98;5.97;;;29.60;45.50;;;;;;5112784;28;20027;-75
2022/08/05 08:58:17;;;;;;;10.52;6.00;;;29.70;45.20;;;;;;5114228;28;20028;-74
2022/08/05 09:00:45;;;;;;;12.98;6.28;;;29.70;44.90;;;;;;5114183;28;20019;-74
2022/08/05 09:03:11;;;;;;;6.85;4.88;;;29.80;45.40;;;;;;5114004;27;20362;-75
2022/08/05 09:05:37;;;;;;;8.90;5.07;;;29.90;45.30;;;;;;5112882;28;20474;-73
2022/08/05 09:08:03;;;;;;;8.75;5.63;;;30.00;44.60;;;;;;5109266;28;20026;-74
2022/08/05 09:10:30;;;;;;;6.28;4.63;;;30.00;44.10;;;;;;5092425;28;20089;-74
2022/08/05 09:12:56;;;;;;;7.53;5.40;;;30.10;43.80;;;;;;5093682;28;20020;-73
2022/08/05 09:15:22;;;;;;;8.00;5.07;;;30.20;44.00;;;;;;5093626;28;20028;-73
2022/08/05 09:17:49;;;;;;;19.65;5.82;;;30.20;44.60;;;;;;5093615;28;20056;-74
2022/08/05 09:20:15;;;;;;;9.18;5.28;;;30.30;45.10;;;;;;5093395;28;20114;-74
2022/08/05 09:23:04;;;;;;;5.55;4.60;;;30.40;45.30;;;;;;5105495;28;20500;-75
2022/08/05 09:25:31;;;;;;;7.50;5.30;;;30.50;45.90;;;;;;5110098;28;20475;-75
2022/08/05 09:28:13;;;;;;;9.50;4.60;;;30.50;45.90;;;;;;5113803;28;20031;-75
2022/08/05 09:31:03;;;;;;;13.13;5.22;;;30.60;45.90;;;;;;5113130;28;20097;-74
2022/08/05 09:33:30;;;;;;;7.47;4.75;;;30.70;45.70;;;;;;5111074;28;20384;-75
2022/08/05 09:36:00;;;;;;;7.13;5.63;;;30.80;45.30;;;;;;5112204;28;20031;-75
2022/08/05 09:38:26;;;;;;;7.03;5.05;;;30.90;45.00;;;;;;5113608;28;20019;-73
2022/08/05 09:40:53;;;;;;;5.22;4.28;;;31.00;44.80;;;;;;5113628;28;20019;-74
2022/08/05 09:43:27;;;;;;;5.45;3.63;;;31.00;44.30;;;;;;5112226;28;20073;-75
2022/08/05 09:45:53;;;;;;;6.18;3.85;;;31.10;42.50;;;;;;5113571;28;20028;-75
2022/08/05 09:48:25;;;;;;;4.50;4.00;;;31.10;40.70;;;;;;5112253;28;20026;-75
2022/08/05 09:50:54;;;;;;;5.93;4.07;;;31.20;41.70;;;;;;5112275;28;20023;-74
2022/08/05 09:53:20;;;;;;;4.93;3.70;;;31.20;41.90;;;;;;5112146;28;20508;-74
2022/08/05 09:55:50;;;;;;;7.10;3.97;;;31.30;41.40;;;;;;5111710;28;20080;-74
2022/08/05 09:58:16;;;;;;;6.22;3.75;;;31.30;41.30;;;;;;5113334;28;20032;-73
2022/08/05 10:00:58;;;;;;;5.03;3.55;;;31.40;41.50;;;;;;5112018;28;20023;-74
2022/08/05 10:03:24;;;;;;;3.60;3.05;;;31.50;41.40;;;;;;5111931;28;20035;-75
2022/08/05 10:06:03;;;;;;;5.22;3.78;;;31.60;41.20;;;;;;5113342;28;20443;-74
2022/08/05 10:08:29;;;;;;;6.13;4.05;;;31.70;41.10;;;;;;5092977;28;20099;-74
2022/08/05 10:10:55;;;;;;;4.50;3.70;;;31.70;40.10;;;;;;5091547;28;20020;-74
2022/08/05 10:13:37;;;;;;;3.97;3.13;;;31.70;39.80;;;;;;5092742;28;20020;-76
2022/08/05 10:16:05;;;;;;;7.80;4.05;;;31.70;39.80;;;;;;5092816;28;20028;-74
2022/08/05 10:18:32;;;;;;;4.88;3.60;;;31.80;39.70;;;;;;5091529;28;20507;-75
2022/08/05 10:21:04;;;;;;;3.90;3.42;;;31.90;39.50;;;;;;5091413;28;20182;-74
2022/08/05 10:23:36;;;;;;;5.43;4.00;;;31.90;39.40;;;;;;5091484;28;20032;-73
2022/08/05 10:26:05;;;;;;;4.10;3.67;;;32.00;39.30;;;;;;5098324;28;20541;-75
2022/08/05 10:28:32;;;;;;;10.50;3.50;;;32.00;39.40;;;;;;5111742;28;20134;-75
2022/08/05 10:30:59;;;;;;;9.80;3.78;;;32.00;38.90;;;;;;5111765;28;20098;-73
2022/08/05 10:33:27;;;;;;;3.70;3.28;;;32.10;39.20;;;;;;5114577;28;20130;-74
2022/08/05 10:35:55;;;;;;;4.53;3.60;;;32.10;39.50;;;;;;5116890;28;20023;-74
2022/08/05 10:38:23;;;;;;;5.65;3.75;;;32.20;39.40;;;;;;5115701;28;20068;-75
2022/08/05 10:40:49;;;;;;;3.40;2.90;;;32.30;38.90;;;;;;5117818;28;20419;-75
2022/08/05 10:43:14;;;;;;;5.72;3.28;;;32.30;38.60;;;;;;5116808;28;20027;-73
2022/08/05 10:45:40;;;;;;;5.25;3.33;;;32.40;38.50;;;;;;5115662;28;20380;-74
2022/08/05 10:48:29;;;;;;;4.18;3.30;;;32.40;38.50;;;;;;5115551;28;20108;-74
2022/08/05 10:51:07;;;;;;;5.13;3.50;;;32.50;38.50;;;;;;5115403;28;20498;-75
2022/08/05 10:53:41;;;;;;;6.47;3.30;;;32.60;38.20;;;;;;5116593;28;20034;-76
2022/08/05 10:56:12;;;;;;;13.43;3.25;;;32.60;38.30;;;;;;5114928;28;20054;-76
2022/08/05 10:59:03;;;;;;;4.10;3.50;;;32.70;38.50;;;;;;5116566;28;20103;-74
2022/08/05 11:01:31;;;;;;;5.47;3.17;;;32.70;38.50;;;;;;5115243;28;20027;-75
2022/08/05 11:04:02;;;;;;;5.38;3.53;;;32.80;38.40;;;;;;5116091;28;20027;-74
2022/08/05 11:06:29;;;;;;;4.85;3.05;;;32.90;38.10;;;;;;5099631;28;20500;-76
2022/08/05 11:09:18;;;;;;;7.78;3.63;;;32.90;38.10;;;;;;5095863;28;20100;-74
2022/08/05 11:11:46;;;;;;;8.15;3.95;;;33.00;38.20;;;;;;5094602;28;20028;-74
2022/08/05 11:14:12;;;;;;;6.05;3.88;;;33.00;37.70;;;;;;5094593;28;20447;-73
2022/08/05 11:16:38;;;;;;;4.82;3.60;;;33.00;38.00;;;;;;5094353;28;20076;-75
2022/08/05 11:19:23;;;;;;;5.03;3.30;;;33.10;37.90;;;;;;5095757;28;20020;-74
2022/08/05 11:21:48;;;;;;;4.45;3.55;;;33.10;37.80;;;;;;5094156;28;20108;-75
2022/08/05 11:24:14;;;;;;;7.05;3.40;;;33.20;37.90;;;;;;5095503;28;20028;-74
2022/08/05 11:26:40;;;;;;;4.85;3.53;;;33.20;37.70;;;;;;5104059;28;20030;-74
2022/08/05 11:29:07;;;;;;;9.30;3.88;;;33.20;37.10;;;;;;5115882;28;20069;-74
2022/08/05 11:31:33;;;;;;;8.45;4.10;;;33.20;37.10;;;;;;5115928;28;20015;-74
2022/08/05 11:34:09;;;;;;;5.97;3.45;;;33.30;37.40;;;;;;5114494;28;20028;-73
2022/08/05 11:36:47;;;;;;;4.38;2.80;;;33.30;37.50;;;;;;5115872;28;20027;-73
2022/08/05 11:39:37;;;;;;;5.40;3.53;;;33.40;37.40;;;;;;5115792;28;20034;-73
2022/08/05 11:42:04;;;;;;;5.38;3.45;;;33.40;37.50;;;;;;5115654;28;20054;-73
2022/08/05 11:44:37;;;;;;;7.40;3.38;;;33.50;37.10;;;;;;5114379;28;20042;-75
2022/08/05 11:47:03;;;;;;;7.50;3.58;;;33.60;37.20;;;;;;5115626;28;20064;-74
2022/08/05 11:49:29;;;;;;;5.22;4.05;;;33.60;37.30;;;;;;5114163;28;20032;-73
2022/08/05 11:51:54;;;;;;;5.05;3.40;;;33.70;37.20;;;;;;5115573;28;20069;-74
2022/08/05 11:54:23;;;;;;;9.32;3.72;;;33.80;37.00;;;;;;5115406;27;20423;-74
2022/08/05 11:56:52;;;;;;;6.68;3.45;;;34.00;37.20;;;;;;5113598;28;20024;-74
2022/08/05 11:59:24;;;;;;;6.03;3.60;;;34.00;37.00;;;;;;5114332;28;20362;-73
2022/08/05 12:01:54;;;;;;;4.47;3.67;;;34.20;37.20;;;;;;5114351;28;20493;-75
2022/08/05 12:04:20;;;;;;;4.07;3.35;;;34.40;37.20;;;;;;5106463;28;20024;-75
2022/08/05 12:06:46;;;;;;;9.00;4.55;;;34.50;36.40;;;;;;5094811;28;20021;-73
2022/08/05 12:09:17;;;;;;;4.75;3.88;;;34.80;36.50;;;;;;5093485;28;20020;-76
2022/08/05 12:11:44;;;;;;;3.60;3.30;;;35.00;36.60;;;;;;5094702;28;20034;-74
2022/08/05 12:14:10;;;;;;;4.55;3.88;;;35.20;36.30;;;;;;5094660;28;20027;-73
2022/08/05 12:16:48;;;;;;;8.32;3.40;;;35.50;35.90;;;;;;5094649;28;20024;-76
2022/08/05 12:19:15;;;;;;;4.13;3.63;;;35.70;36.10;;;;;;5094556;28;20468;-74
2022/08/05 12:21:47;;;;;;;8.32;3.80;;;35.80;35.50;;;;;;5094195;28;20052;-72
2022/08/05 12:24:20;;;;;;;4.07;3.60;;;35.90;35.10;;;;;;5094446;28;20063;-74
2022/08/05 12:26:48;;;;;;;3.85;3.30;;;36.00;34.90;;;;;;5104056;28;20209;-74
2022/08/05 12:29:18;;;;;;;4.55;3.67;;;36.10;34.70;;;;;;5099564;28;20020;-75
2022/08/05 12:31:55;;;;;;;5.10;3.70;;;36.10;34.90;;;;;;5094363;28;20024;-75
2022/08/05 12:34:30;;;;;;;6.53;3.35;;;36.20;34.70;;;;;;5093006;28;20035;-74
2022/08/05 12:36:59;;;;;;;4.05;2.70;;;36.20;34.60;;;;;;5094222;28;20412;-74
2022/08/05 12:39:26;;;;;;;7.03;3.70;;;36.10;34.50;;;;;;5094263;28;20031;-74
2022/08/05 12:41:58;;;;;;;4.28;3.42;;;36.10;34.60;;;;;;5092932;28;20027;-74
2022/08/05 12:44:24;;;;;;;5.97;3.55;;;36.10;34.60;;;;;;5094847;28;20038;-75
2022/08/05 12:46:54;;;;;;;3.95;3.42;;;36.10;34.60;;;;;;5112534;28;20023;-73
2022/08/05 12:49:21;;;;;;;3.92;3.47;;;36.00;34.40;;;;;;5103172;28;20027;-72
2022/08/05 12:51:52;;;;;;;5.22;3.97;;;36.00;34.40;;;;;;5093955;28;20024;-73
2022/08/05 12:54:23;;;;;;;4.00;3.35;;;36.00;34.40;;;;;;5094005;28;20073;-73
2022/08/05 12:57:10;;;;;;;3.58;3.28;;;35.90;34.10;;;;;;5094205;28;20389;-74
2022/08/05 12:59:53;;;;;;;4.05;3.47;;;35.90;34.40;;;;;;5093748;28;20099;-73